<?xml version="1.0" encoding="UTF-8" standalone="no" ?>
<gpx xmlns="http://www.topografix.com/GPX/1/1" xmlns:xsi="http://www.w3.org/2001/XMLSchema-instance" xsi:schemaLocation="http://www.topografix.com/GPX/1/1 http://www.topografix.com/GPX/1/1/gpx.xsd" version="1.1" creator="VisuGPX - https://www.visugpx.com">
  <metadata>
    <name>Sentier des ne%u0301ve%u0301s Metzeral</name>
    <desc><![CDATA[Sentier des ne%u0301ve%u0301s Metzeral - http://www.tracegps.com/fr/parcours/circuit308.htm]]></desc>
  </metadata>
  <trk>
    <name><![CDATA[20050715 06]]></name>
    <trkseg>
      <trkpt lat="48.01287" lon="7.07301">
        <ele>478</ele>
        <time>2005-07-15T11:33:01Z</time>
      </trkpt>
      <trkpt lat="48.01274" lon="7.07232">
        <ele>476</ele>
        <time>2005-07-15T11:36:06Z</time>
      </trkpt>
      <trkpt lat="48.01328" lon="7.07223">
        <ele>476</ele>
        <time>2005-07-15T11:36:21Z</time>
      </trkpt>
      <trkpt lat="48.01332" lon="7.07198">
        <ele>475</ele>
        <time>2005-07-15T11:36:26Z</time>
      </trkpt>
      <trkpt lat="48.01334" lon="7.07153">
        <ele>477</ele>
        <time>2005-07-15T11:36:36Z</time>
      </trkpt>
      <trkpt lat="48.01255" lon="7.07155">
        <ele>479</ele>
        <time>2005-07-15T11:39:41Z</time>
      </trkpt>
      <trkpt lat="48.01296" lon="7.07101">
        <ele>479</ele>
        <time>2005-07-15T11:41:56Z</time>
      </trkpt>
      <trkpt lat="48.01261" lon="7.07002">
        <ele>479</ele>
        <time>2005-07-15T11:42:16Z</time>
      </trkpt>
      <trkpt lat="48.01231" lon="7.06925">
        <ele>480</ele>
        <time>2005-07-15T11:42:31Z</time>
      </trkpt>
      <trkpt lat="48.01236" lon="7.0682">
        <ele>484</ele>
        <time>2005-07-15T11:42:51Z</time>
      </trkpt>
      <trkpt lat="48.01238" lon="7.06762">
        <ele>484</ele>
        <time>2005-07-15T11:43:01Z</time>
      </trkpt>
      <trkpt lat="48.01238" lon="7.06339">
        <ele>484</ele>
        <time>2005-07-15T11:43:56Z</time>
      </trkpt>
      <trkpt lat="48.0121" lon="7.06211">
        <ele>486</ele>
        <time>2005-07-15T11:44:16Z</time>
      </trkpt>
      <trkpt lat="48.01158" lon="7.06166">
        <ele>500</ele>
        <time>2005-07-15T11:45:46Z</time>
      </trkpt>
      <trkpt lat="48.01135" lon="7.06097">
        <ele>507</ele>
        <time>2005-07-15T11:46:46Z</time>
      </trkpt>
      <trkpt lat="48.01126" lon="7.06213">
        <ele>520</ele>
        <time>2005-07-15T11:48:31Z</time>
      </trkpt>
      <trkpt lat="48.01107" lon="7.06159">
        <ele>526</ele>
        <time>2005-07-15T11:49:11Z</time>
      </trkpt>
      <trkpt lat="48.01098" lon="7.06271">
        <ele>536</ele>
        <time>2005-07-15T11:50:46Z</time>
      </trkpt>
      <trkpt lat="48.01079" lon="7.06196">
        <ele>544</ele>
        <time>2005-07-15T11:51:36Z</time>
      </trkpt>
      <trkpt lat="48.01075" lon="7.06241">
        <ele>548</ele>
        <time>2005-07-15T11:52:21Z</time>
      </trkpt>
      <trkpt lat="48.01043" lon="7.06307">
        <ele>559</ele>
        <time>2005-07-15T11:53:06Z</time>
      </trkpt>
      <trkpt lat="48.01023" lon="7.06292">
        <ele>564</ele>
        <time>2005-07-15T11:53:21Z</time>
      </trkpt>
      <trkpt lat="48.00991" lon="7.06299">
        <ele>569</ele>
        <time>2005-07-15T11:53:51Z</time>
      </trkpt>
      <trkpt lat="48.00918" lon="7.06232">
        <ele>581</ele>
        <time>2005-07-15T11:56:01Z</time>
      </trkpt>
      <trkpt lat="48.00948" lon="7.06221">
        <ele>588</ele>
        <time>2005-07-15T11:56:26Z</time>
      </trkpt>
      <trkpt lat="48.00933" lon="7.06213">
        <ele>589</ele>
        <time>2005-07-15T11:56:46Z</time>
      </trkpt>
      <trkpt lat="48.00914" lon="7.06198">
        <ele>595</ele>
        <time>2005-07-15T11:56:56Z</time>
      </trkpt>
      <trkpt lat="48.00875" lon="7.06174">
        <ele>600</ele>
        <time>2005-07-15T11:57:26Z</time>
      </trkpt>
      <trkpt lat="48.00847" lon="7.06161">
        <ele>608</ele>
        <time>2005-07-15T11:57:51Z</time>
      </trkpt>
      <trkpt lat="48.00774" lon="7.06114">
        <ele>619</ele>
        <time>2005-07-15T11:58:56Z</time>
      </trkpt>
      <trkpt lat="48.00626" lon="7.06125">
        <ele>646</ele>
        <time>2005-07-15T12:00:56Z</time>
      </trkpt>
      <trkpt lat="48.00639" lon="7.06105">
        <ele>652</ele>
        <time>2005-07-15T12:02:46Z</time>
      </trkpt>
      <trkpt lat="48.00521" lon="7.06043">
        <ele>681</ele>
        <time>2005-07-15T12:06:36Z</time>
      </trkpt>
      <trkpt lat="48.00549" lon="7.06013">
        <ele>689</ele>
        <time>2005-07-15T12:07:11Z</time>
      </trkpt>
      <trkpt lat="48.00493" lon="7.0596">
        <ele>699</ele>
        <time>2005-07-15T12:08:01Z</time>
      </trkpt>
      <trkpt lat="48.0054" lon="7.05942">
        <ele>706</ele>
        <time>2005-07-15T12:08:41Z</time>
      </trkpt>
      <trkpt lat="48.00577" lon="7.05962">
        <ele>710</ele>
        <time>2005-07-15T12:09:11Z</time>
      </trkpt>
      <trkpt lat="48.00558" lon="7.05921">
        <ele>717</ele>
        <time>2005-07-15T12:09:46Z</time>
      </trkpt>
      <trkpt lat="48.00483" lon="7.05861">
        <ele>723</ele>
        <time>2005-07-15T12:10:56Z</time>
      </trkpt>
      <trkpt lat="48.00425" lon="7.05899">
        <ele>715</ele>
        <time>2005-07-15T12:13:01Z</time>
      </trkpt>
      <trkpt lat="48.00403" lon="7.0597">
        <ele>704</ele>
        <time>2005-07-15T12:13:11Z</time>
      </trkpt>
      <trkpt lat="48.00418" lon="7.06075">
        <ele>702</ele>
        <time>2005-07-15T12:13:21Z</time>
      </trkpt>
      <trkpt lat="48.00399" lon="7.06103">
        <ele>700</ele>
        <time>2005-07-15T12:13:31Z</time>
      </trkpt>
      <trkpt lat="48.00397" lon="7.06112">
        <ele>702</ele>
        <time>2005-07-15T12:13:56Z</time>
      </trkpt>
      <trkpt lat="48.00388" lon="7.06116">
        <ele>700</ele>
        <time>2005-07-15T12:15:46Z</time>
      </trkpt>
      <trkpt lat="48.00427" lon="7.05906">
        <ele>717</ele>
        <time>2005-07-15T12:17:46Z</time>
      </trkpt>
      <trkpt lat="48.00474" lon="7.05859">
        <ele>724</ele>
        <time>2005-07-15T12:18:21Z</time>
      </trkpt>
      <trkpt lat="48.00545" lon="7.05839">
        <ele>731</ele>
        <time>2005-07-15T12:19:06Z</time>
      </trkpt>
      <trkpt lat="48.00579" lon="7.05816">
        <ele>737</ele>
        <time>2005-07-15T12:19:36Z</time>
      </trkpt>
      <trkpt lat="48.00429" lon="7.05777">
        <ele>749</ele>
        <time>2005-07-15T12:22:11Z</time>
      </trkpt>
      <trkpt lat="48.00294" lon="7.05831">
        <ele>761</ele>
        <time>2005-07-15T12:23:36Z</time>
      </trkpt>
      <trkpt lat="48.00277" lon="7.05859">
        <ele>762</ele>
        <time>2005-07-15T12:23:51Z</time>
      </trkpt>
      <trkpt lat="48.00266" lon="7.05878">
        <ele>764</ele>
        <time>2005-07-15T12:24:01Z</time>
      </trkpt>
      <trkpt lat="48.00251" lon="7.05945">
        <ele>766</ele>
        <time>2005-07-15T12:24:26Z</time>
      </trkpt>
      <trkpt lat="48.0024" lon="7.06041">
        <ele>773</ele>
        <time>2005-07-15T12:25:01Z</time>
      </trkpt>
      <trkpt lat="48.00229" lon="7.0609">
        <ele>775</ele>
        <time>2005-07-15T12:27:16Z</time>
      </trkpt>
      <trkpt lat="48.00225" lon="7.06078">
        <ele>777</ele>
        <time>2005-07-15T12:27:41Z</time>
      </trkpt>
      <trkpt lat="48.00201" lon="7.05932">
        <ele>793</ele>
        <time>2005-07-15T12:29:26Z</time>
      </trkpt>
      <trkpt lat="48.00159" lon="7.05867">
        <ele>809</ele>
        <time>2005-07-15T12:30:46Z</time>
      </trkpt>
      <trkpt lat="48.00143" lon="7.05906">
        <ele>817</ele>
        <time>2005-07-15T12:31:36Z</time>
      </trkpt>
      <trkpt lat="48.00118" lon="7.05852">
        <ele>824</ele>
        <time>2005-07-15T12:32:31Z</time>
      </trkpt>
      <trkpt lat="48.00107" lon="7.05837">
        <ele>831</ele>
        <time>2005-07-15T12:32:51Z</time>
      </trkpt>
      <trkpt lat="48.00103" lon="7.05908">
        <ele>836</ele>
        <time>2005-07-15T12:34:41Z</time>
      </trkpt>
      <trkpt lat="48.00045" lon="7.0588">
        <ele>861</ele>
        <time>2005-07-15T12:38:36Z</time>
      </trkpt>
      <trkpt lat="47.99905" lon="7.05951">
        <ele>881</ele>
        <time>2005-07-15T12:40:21Z</time>
      </trkpt>
      <trkpt lat="47.9994" lon="7.05891">
        <ele>893</ele>
        <time>2005-07-15T12:42:56Z</time>
      </trkpt>
      <trkpt lat="47.99929" lon="7.05756">
        <ele>911</ele>
        <time>2005-07-15T12:44:31Z</time>
      </trkpt>
      <trkpt lat="47.9992" lon="7.05543">
        <ele>926</ele>
        <time>2005-07-15T12:48:21Z</time>
      </trkpt>
      <trkpt lat="47.99847" lon="7.05432">
        <ele>935</ele>
        <time>2005-07-15T12:49:51Z</time>
      </trkpt>
      <trkpt lat="47.99817" lon="7.05419">
        <ele>938</ele>
        <time>2005-07-15T12:50:11Z</time>
      </trkpt>
      <trkpt lat="47.99783" lon="7.05397">
        <ele>946</ele>
        <time>2005-07-15T12:50:41Z</time>
      </trkpt>
      <trkpt lat="47.99648" lon="7.05361">
        <ele>950</ele>
        <time>2005-07-15T12:52:21Z</time>
      </trkpt>
      <trkpt lat="47.99571" lon="7.05331">
        <ele>960</ele>
        <time>2005-07-15T12:53:11Z</time>
      </trkpt>
      <trkpt lat="47.99444" lon="7.05339">
        <ele>970</ele>
        <time>2005-07-15T12:54:26Z</time>
      </trkpt>
      <trkpt lat="47.99431" lon="7.05273">
        <ele>980</ele>
        <time>2005-07-15T12:55:01Z</time>
      </trkpt>
      <trkpt lat="47.99347" lon="7.05185">
        <ele>985</ele>
        <time>2005-07-15T12:56:16Z</time>
      </trkpt>
      <trkpt lat="47.99253" lon="7.0503">
        <ele>1006</ele>
        <time>2005-07-15T12:58:11Z</time>
      </trkpt>
      <trkpt lat="47.99212" lon="7.05028">
        <ele>1010</ele>
        <time>2005-07-15T12:58:41Z</time>
      </trkpt>
      <trkpt lat="47.99079" lon="7.04874">
        <ele>1017</ele>
        <time>2005-07-15T13:01:56Z</time>
      </trkpt>
      <trkpt lat="47.99006" lon="7.04827">
        <ele>1024</ele>
        <time>2005-07-15T13:02:36Z</time>
      </trkpt>
      <trkpt lat="47.98923" lon="7.04571">
        <ele>1044</ele>
        <time>2005-07-15T13:09:02Z</time>
      </trkpt>
      <trkpt lat="47.98856" lon="7.04756">
        <ele>1052</ele>
        <time>2005-07-15T13:10:22Z</time>
      </trkpt>
      <trkpt lat="47.98796" lon="7.04769">
        <ele>1056</ele>
        <time>2005-07-15T13:10:47Z</time>
      </trkpt>
      <trkpt lat="47.98695" lon="7.04786">
        <ele>1067</ele>
        <time>2005-07-15T13:11:27Z</time>
      </trkpt>
      <trkpt lat="47.98656" lon="7.04835">
        <ele>1070</ele>
        <time>2005-07-15T13:12:42Z</time>
      </trkpt>
      <trkpt lat="47.98631" lon="7.04784">
        <ele>1077</ele>
        <time>2005-07-15T13:13:17Z</time>
      </trkpt>
      <trkpt lat="47.98526" lon="7.04865">
        <ele>1086</ele>
        <time>2005-07-15T13:14:32Z</time>
      </trkpt>
      <trkpt lat="47.98317" lon="7.04792">
        <ele>1103</ele>
        <time>2005-07-15T13:16:12Z</time>
      </trkpt>
      <trkpt lat="47.98227" lon="7.04689">
        <ele>1109</ele>
        <time>2005-07-15T13:17:02Z</time>
      </trkpt>
      <trkpt lat="47.98157" lon="7.04631">
        <ele>1117</ele>
        <time>2005-07-15T13:17:37Z</time>
      </trkpt>
      <trkpt lat="47.98004" lon="7.04601">
        <ele>1120</ele>
        <time>2005-07-15T13:18:32Z</time>
      </trkpt>
      <trkpt lat="47.97944" lon="7.04603">
        <ele>1130</ele>
        <time>2005-07-15T13:19:02Z</time>
      </trkpt>
      <trkpt lat="47.97828" lon="7.04749">
        <ele>1139</ele>
        <time>2005-07-15T13:20:07Z</time>
      </trkpt>
      <trkpt lat="47.97717" lon="7.04734">
        <ele>1139</ele>
        <time>2005-07-15T13:21:54Z</time>
      </trkpt>
      <trkpt lat="47.97594" lon="7.04543">
        <ele>1164</ele>
        <time>2005-07-15T13:25:31Z</time>
      </trkpt>
      <trkpt lat="47.97466" lon="7.04528">
        <ele>1168</ele>
        <time>2005-07-15T13:26:21Z</time>
      </trkpt>
      <trkpt lat="47.97382" lon="7.04483">
        <ele>1181</ele>
        <time>2005-07-15T13:27:21Z</time>
      </trkpt>
      <trkpt lat="47.97292" lon="7.04468">
        <ele>1184</ele>
        <time>2005-07-15T13:28:16Z</time>
      </trkpt>
      <trkpt lat="47.97178" lon="7.04447">
        <ele>1174</ele>
        <time>2005-07-15T13:29:06Z</time>
      </trkpt>
      <trkpt lat="47.9706" lon="7.04408">
        <ele>1180</ele>
        <time>2005-07-15T13:29:36Z</time>
      </trkpt>
      <trkpt lat="47.96996" lon="7.04357">
        <ele>1183</ele>
        <time>2005-07-15T13:30:11Z</time>
      </trkpt>
      <trkpt lat="47.96968" lon="7.04262">
        <ele>1184</ele>
        <time>2005-07-15T13:31:11Z</time>
      </trkpt>
      <trkpt lat="47.96927" lon="7.04275">
        <ele>1185</ele>
        <time>2005-07-15T13:31:46Z</time>
      </trkpt>
      <trkpt lat="47.96884" lon="7.0423">
        <ele>1190</ele>
        <time>2005-07-15T13:32:11Z</time>
      </trkpt>
      <trkpt lat="47.96736" lon="7.04168">
        <ele>1192</ele>
        <time>2005-07-15T13:33:21Z</time>
      </trkpt>
      <trkpt lat="47.96685" lon="7.04108">
        <ele>1202</ele>
        <time>2005-07-15T13:34:16Z</time>
      </trkpt>
      <trkpt lat="47.96674" lon="7.04024">
        <ele>1208</ele>
        <time>2005-07-15T13:35:11Z</time>
      </trkpt>
      <trkpt lat="47.96663" lon="7.03992">
        <ele>1213</ele>
        <time>2005-07-15T13:35:31Z</time>
      </trkpt>
      <trkpt lat="47.96631" lon="7.03908">
        <ele>1220</ele>
        <time>2005-07-15T13:36:06Z</time>
      </trkpt>
      <trkpt lat="47.96622" lon="7.03788">
        <ele>1224</ele>
        <time>2005-07-15T13:36:51Z</time>
      </trkpt>
      <trkpt lat="47.96541" lon="7.03625">
        <ele>1229</ele>
        <time>2005-07-15T13:37:41Z</time>
      </trkpt>
      <trkpt lat="47.9653" lon="7.03619">
        <ele>1231</ele>
        <time>2005-07-15T13:37:46Z</time>
      </trkpt>
      <trkpt lat="47.9644" lon="7.03616">
        <ele>1232</ele>
        <time>2005-07-15T13:43:56Z</time>
      </trkpt>
      <trkpt lat="47.96313" lon="7.03734">
        <ele>1239</ele>
        <time>2005-07-15T13:45:21Z</time>
      </trkpt>
      <trkpt lat="47.96103" lon="7.03747">
        <ele>1245</ele>
        <time>2005-07-15T13:46:26Z</time>
      </trkpt>
      <trkpt lat="47.95968" lon="7.03722">
        <ele>1239</ele>
        <time>2005-07-15T13:46:56Z</time>
      </trkpt>
      <trkpt lat="47.95775" lon="7.03533">
        <ele>1213</ele>
        <time>2005-07-15T13:47:21Z</time>
      </trkpt>
      <trkpt lat="47.95712" lon="7.03415">
        <ele>1207</ele>
        <time>2005-07-15T13:47:31Z</time>
      </trkpt>
      <trkpt lat="47.95624" lon="7.0314">
        <ele>1200</ele>
        <time>2005-07-15T13:48:26Z</time>
      </trkpt>
      <trkpt lat="47.95558" lon="7.03097">
        <ele>1186</ele>
        <time>2005-07-15T13:48:41Z</time>
      </trkpt>
      <trkpt lat="47.95494" lon="7.03033">
        <ele>1186</ele>
        <time>2005-07-15T13:49:21Z</time>
      </trkpt>
      <trkpt lat="47.95427" lon="7.03039">
        <ele>1192</ele>
        <time>2005-07-15T13:49:46Z</time>
      </trkpt>
      <trkpt lat="47.95367" lon="7.03018">
        <ele>1184</ele>
        <time>2005-07-15T13:50:01Z</time>
      </trkpt>
      <trkpt lat="47.95281" lon="7.02887">
        <ele>1182</ele>
        <time>2005-07-15T13:50:41Z</time>
      </trkpt>
      <trkpt lat="47.95281" lon="7.02795">
        <ele>1181</ele>
        <time>2005-07-15T13:50:51Z</time>
      </trkpt>
      <trkpt lat="47.95324" lon="7.02698">
        <ele>1183</ele>
        <time>2005-07-15T13:50:56Z</time>
      </trkpt>
      <trkpt lat="47.95283" lon="7.02466">
        <ele>1194</ele>
        <time>2005-07-15T13:51:51Z</time>
      </trkpt>
      <trkpt lat="47.95202" lon="7.02093">
        <ele>1193</ele>
        <time>2005-07-15T13:54:46Z</time>
      </trkpt>
      <trkpt lat="47.95182" lon="7.02013">
        <ele>1185</ele>
        <time>2005-07-15T13:55:21Z</time>
      </trkpt>
      <trkpt lat="47.95197" lon="7.01928">
        <ele>1184</ele>
        <time>2005-07-15T13:55:31Z</time>
      </trkpt>
      <trkpt lat="47.95266" lon="7.0185">
        <ele>1181</ele>
        <time>2005-07-15T13:55:46Z</time>
      </trkpt>
      <trkpt lat="47.95283" lon="7.01812">
        <ele>1180</ele>
        <time>2005-07-15T13:55:51Z</time>
      </trkpt>
      <trkpt lat="47.95331" lon="7.017">
        <ele>1179</ele>
        <time>2005-07-15T13:56:11Z</time>
      </trkpt>
      <trkpt lat="47.95378" lon="7.01479">
        <ele>1176</ele>
        <time>2005-07-15T13:56:51Z</time>
      </trkpt>
      <trkpt lat="47.95547" lon="7.00677">
        <ele>1202</ele>
        <time>2005-07-15T13:59:51Z</time>
      </trkpt>
      <trkpt lat="47.95586" lon="7.00619">
        <ele>1200</ele>
        <time>2005-07-15T14:00:11Z</time>
      </trkpt>
      <trkpt lat="47.95775" lon="7.00514">
        <ele>1200</ele>
        <time>2005-07-15T14:01:06Z</time>
      </trkpt>
      <trkpt lat="47.95856" lon="7.00469">
        <ele>1205</ele>
        <time>2005-07-15T14:01:31Z</time>
      </trkpt>
      <trkpt lat="47.95914" lon="7.00462">
        <ele>1197</ele>
        <time>2005-07-15T14:01:46Z</time>
      </trkpt>
      <trkpt lat="47.95989" lon="7.00404">
        <ele>1201</ele>
        <time>2005-07-15T14:02:06Z</time>
      </trkpt>
      <trkpt lat="47.96182" lon="7.00127">
        <ele>1220</ele>
        <time>2005-07-15T14:03:56Z</time>
      </trkpt>
      <trkpt lat="47.96242" lon="6.99851">
        <ele>1221</ele>
        <time>2005-07-15T14:05:01Z</time>
      </trkpt>
      <trkpt lat="47.96341" lon="6.99769">
        <ele>1221</ele>
        <time>2005-07-15T14:09:21Z</time>
      </trkpt>
      <trkpt lat="47.96466" lon="6.99715">
        <ele>1220</ele>
        <time>2005-07-15T14:10:06Z</time>
      </trkpt>
      <trkpt lat="47.9653" lon="6.99681">
        <ele>1211</ele>
        <time>2005-07-15T14:10:21Z</time>
      </trkpt>
      <trkpt lat="47.96584" lon="6.9963">
        <ele>1200</ele>
        <time>2005-07-15T14:10:31Z</time>
      </trkpt>
      <trkpt lat="47.96635" lon="6.99591">
        <ele>1199</ele>
        <time>2005-07-15T14:10:41Z</time>
      </trkpt>
      <trkpt lat="47.96657" lon="6.99561">
        <ele>1197</ele>
        <time>2005-07-15T14:10:46Z</time>
      </trkpt>
      <trkpt lat="47.96807" lon="6.99417">
        <ele>1204</ele>
        <time>2005-07-15T14:11:41Z</time>
      </trkpt>
      <trkpt lat="47.96933" lon="6.9923">
        <ele>1241</ele>
        <time>2005-07-15T14:14:16Z</time>
      </trkpt>
      <trkpt lat="47.97084" lon="6.99185">
        <ele>1243</ele>
        <time>2005-07-15T14:15:06Z</time>
      </trkpt>
      <trkpt lat="47.97172" lon="6.99136">
        <ele>1251</ele>
        <time>2005-07-15T14:15:41Z</time>
      </trkpt>
      <trkpt lat="47.97451" lon="6.99063">
        <ele>1276</ele>
        <time>2005-07-15T14:44:41Z</time>
      </trkpt>
      <trkpt lat="47.97485" lon="6.99024">
        <ele>1268</ele>
        <time>2005-07-15T14:45:21Z</time>
      </trkpt>
      <trkpt lat="47.97532" lon="6.98973">
        <ele>1271</ele>
        <time>2005-07-15T14:45:41Z</time>
      </trkpt>
      <trkpt lat="47.97547" lon="6.98954">
        <ele>1267</ele>
        <time>2005-07-15T14:45:46Z</time>
      </trkpt>
      <trkpt lat="47.97607" lon="6.98866">
        <ele>1247</ele>
        <time>2005-07-15T14:46:06Z</time>
      </trkpt>
      <trkpt lat="47.97682" lon="6.98761">
        <ele>1235</ele>
        <time>2005-07-15T14:46:21Z</time>
      </trkpt>
      <trkpt lat="47.97704" lon="6.98726">
        <ele>1224</ele>
        <time>2005-07-15T14:46:26Z</time>
      </trkpt>
      <trkpt lat="47.97828" lon="6.98602">
        <ele>1203</ele>
        <time>2005-07-15T14:46:41Z</time>
      </trkpt>
      <trkpt lat="47.97884" lon="6.98552">
        <ele>1204</ele>
        <time>2005-07-15T14:46:51Z</time>
      </trkpt>
      <trkpt lat="47.97972" lon="6.98499">
        <ele>1194</ele>
        <time>2005-07-15T14:47:06Z</time>
      </trkpt>
      <trkpt lat="47.98242" lon="6.98357">
        <ele>1224</ele>
        <time>2005-07-15T14:49:16Z</time>
      </trkpt>
      <trkpt lat="47.98307" lon="6.98334">
        <ele>1225</ele>
        <time>2005-07-15T14:51:31Z</time>
      </trkpt>
      <trkpt lat="47.9835" lon="6.98284">
        <ele>1233</ele>
        <time>2005-07-15T14:51:56Z</time>
      </trkpt>
      <trkpt lat="47.98491" lon="6.98106">
        <ele>1225</ele>
        <time>2005-07-15T14:53:16Z</time>
      </trkpt>
      <trkpt lat="47.98541" lon="6.98031">
        <ele>1234</ele>
        <time>2005-07-15T14:53:46Z</time>
      </trkpt>
      <trkpt lat="47.98717" lon="6.98003">
        <ele>1239</ele>
        <time>2005-07-15T14:55:31Z</time>
      </trkpt>
      <trkpt lat="47.9892" lon="6.98052">
        <ele>1253</ele>
        <time>2005-07-15T14:58:26Z</time>
      </trkpt>
      <trkpt lat="47.9895" lon="6.98057">
        <ele>1249</ele>
        <time>2005-07-15T14:59:06Z</time>
      </trkpt>
      <trkpt lat="47.99141" lon="6.98087">
        <ele>1267</ele>
        <time>2005-07-15T15:00:31Z</time>
      </trkpt>
      <trkpt lat="47.99384" lon="6.9805">
        <ele>1312</ele>
        <time>2005-07-15T15:04:06Z</time>
      </trkpt>
      <trkpt lat="47.99493" lon="6.98072">
        <ele>1290</ele>
        <time>2005-07-15T15:06:11Z</time>
      </trkpt>
      <trkpt lat="47.99562" lon="6.98087">
        <ele>1284</ele>
        <time>2005-07-15T15:06:21Z</time>
      </trkpt>
      <trkpt lat="47.99648" lon="6.98059">
        <ele>1277</ele>
        <time>2005-07-15T15:06:31Z</time>
      </trkpt>
      <trkpt lat="47.998" lon="6.98007">
        <ele>1294</ele>
        <time>2005-07-15T15:07:26Z</time>
      </trkpt>
      <trkpt lat="47.99963" lon="6.98031">
        <ele>1304</ele>
        <time>2005-07-15T15:08:36Z</time>
      </trkpt>
      <trkpt lat="48.00019" lon="6.98061">
        <ele>1302</ele>
        <time>2005-07-15T15:08:51Z</time>
      </trkpt>
      <trkpt lat="48.00083" lon="6.98097">
        <ele>1314</ele>
        <time>2005-07-15T15:09:51Z</time>
      </trkpt>
      <trkpt lat="48.00131" lon="6.98082">
        <ele>1298</ele>
        <time>2005-07-15T15:12:36Z</time>
      </trkpt>
      <trkpt lat="48.00131" lon="6.9805">
        <ele>1294</ele>
        <time>2005-07-15T15:13:16Z</time>
      </trkpt>
      <trkpt lat="48.00152" lon="6.98027">
        <ele>1285</ele>
        <time>2005-07-15T15:13:36Z</time>
      </trkpt>
      <trkpt lat="48.00234" lon="6.98005">
        <ele>1265</ele>
        <time>2005-07-15T15:13:51Z</time>
      </trkpt>
      <trkpt lat="48.00452" lon="6.97997">
        <ele>1217</ele>
        <time>2005-07-15T15:14:41Z</time>
      </trkpt>
      <trkpt lat="48.00498" lon="6.98001">
        <ele>1209</ele>
        <time>2005-07-15T15:14:46Z</time>
      </trkpt>
      <trkpt lat="48.00551" lon="6.97997">
        <ele>1209</ele>
        <time>2005-07-15T15:15:31Z</time>
      </trkpt>
      <trkpt lat="48.00534" lon="6.98119">
        <ele>1203</ele>
        <time>2005-07-15T15:16:36Z</time>
      </trkpt>
      <trkpt lat="48.00545" lon="6.97999">
        <ele>1205</ele>
        <time>2005-07-15T15:18:36Z</time>
      </trkpt>
      <trkpt lat="48.00641" lon="6.97943">
        <ele>1212</ele>
        <time>2005-07-15T15:19:36Z</time>
      </trkpt>
      <trkpt lat="48.00671" lon="6.97902">
        <ele>1213</ele>
        <time>2005-07-15T15:19:56Z</time>
      </trkpt>
      <trkpt lat="48.00785" lon="6.97688">
        <ele>1227</ele>
        <time>2005-07-15T15:21:16Z</time>
      </trkpt>
      <trkpt lat="48.0089" lon="6.97598">
        <ele>1235</ele>
        <time>2005-07-15T15:22:06Z</time>
      </trkpt>
      <trkpt lat="48.00952" lon="6.97647">
        <ele>1239</ele>
        <time>2005-07-15T15:24:26Z</time>
      </trkpt>
      <trkpt lat="48.01066" lon="6.97962">
        <ele>1242</ele>
        <time>2005-07-15T15:26:31Z</time>
      </trkpt>
      <trkpt lat="48.01259" lon="6.98336">
        <ele>1217</ele>
        <time>2005-07-15T15:28:11Z</time>
      </trkpt>
      <trkpt lat="48.01493" lon="6.98559">
        <ele>1194</ele>
        <time>2005-07-15T15:29:26Z</time>
      </trkpt>
      <trkpt lat="48.01603" lon="6.98625">
        <ele>1205</ele>
        <time>2005-07-15T15:30:56Z</time>
      </trkpt>
      <trkpt lat="48.01635" lon="6.98688">
        <ele>1210</ele>
        <time>2005-07-15T15:31:46Z</time>
      </trkpt>
      <trkpt lat="48.01626" lon="6.98681">
        <ele>1209</ele>
        <time>2005-07-15T15:32:01Z</time>
      </trkpt>
      <trkpt lat="48.01622" lon="6.98679">
        <ele>1211</ele>
        <time>2005-07-15T15:32:06Z</time>
      </trkpt>
      <trkpt lat="48.01472" lon="6.98548">
        <ele>1212</ele>
        <time>2005-07-15T15:36:35Z</time>
      </trkpt>
      <trkpt lat="48.01678" lon="6.98769">
        <ele>1213</ele>
        <time>2005-07-15T15:36:50Z</time>
      </trkpt>
      <trkpt lat="48.01759" lon="6.98861">
        <ele>1223</ele>
        <time>2005-07-15T15:38:00Z</time>
      </trkpt>
      <trkpt lat="48.01817" lon="6.98913">
        <ele>1236</ele>
        <time>2005-07-15T15:39:00Z</time>
      </trkpt>
      <trkpt lat="48.01852" lon="6.98977">
        <ele>1245</ele>
        <time>2005-07-15T15:39:45Z</time>
      </trkpt>
      <trkpt lat="48.01907" lon="6.99198">
        <ele>1250</ele>
        <time>2005-07-15T15:42:15Z</time>
      </trkpt>
      <trkpt lat="48.01948" lon="6.99239">
        <ele>1244</ele>
        <time>2005-07-15T15:42:35Z</time>
      </trkpt>
      <trkpt lat="48.0195" lon="6.99333">
        <ele>1242</ele>
        <time>2005-07-15T15:43:00Z</time>
      </trkpt>
      <trkpt lat="48.01879" lon="6.99576">
        <ele>1258</ele>
        <time>2005-07-15T15:44:55Z</time>
      </trkpt>
      <trkpt lat="48.01834" lon="6.99687">
        <ele>1253</ele>
        <time>2005-07-15T15:46:20Z</time>
      </trkpt>
      <trkpt lat="48.01753" lon="6.99784">
        <ele>1248</ele>
        <time>2005-07-15T15:47:20Z</time>
      </trkpt>
      <trkpt lat="48.0174" lon="6.99814">
        <ele>1245</ele>
        <time>2005-07-15T15:47:35Z</time>
      </trkpt>
      <trkpt lat="48.01731" lon="7.00093">
        <ele>1229</ele>
        <time>2005-07-15T15:48:55Z</time>
      </trkpt>
      <trkpt lat="48.01759" lon="7.00241">
        <ele>1226</ele>
        <time>2005-07-15T15:49:35Z</time>
      </trkpt>
      <trkpt lat="48.01821" lon="7.00447">
        <ele>1247</ele>
        <time>2005-07-15T15:51:30Z</time>
      </trkpt>
      <trkpt lat="48.01821" lon="7.00557">
        <ele>1253</ele>
        <time>2005-07-15T15:52:25Z</time>
      </trkpt>
      <trkpt lat="48.01824" lon="7.00672">
        <ele>1269</ele>
        <time>2005-07-15T15:54:20Z</time>
      </trkpt>
      <trkpt lat="48.01802" lon="7.0082">
        <ele>1263</ele>
        <time>2005-07-15T15:55:25Z</time>
      </trkpt>
      <trkpt lat="48.01819" lon="7.00941">
        <ele>1271</ele>
        <time>2005-07-15T15:56:05Z</time>
      </trkpt>
      <trkpt lat="48.01879" lon="7.0102">
        <ele>1277</ele>
        <time>2005-07-15T15:56:45Z</time>
      </trkpt>
      <trkpt lat="48.01948" lon="7.01044">
        <ele>1281</ele>
        <time>2005-07-15T15:57:30Z</time>
      </trkpt>
      <trkpt lat="48.02002" lon="7.01022">
        <ele>1284</ele>
        <time>2005-07-15T15:57:55Z</time>
      </trkpt>
      <trkpt lat="48.02023" lon="7.00962">
        <ele>1291</ele>
        <time>2005-07-15T15:58:35Z</time>
      </trkpt>
      <trkpt lat="48.02027" lon="7.00958">
        <ele>1289</ele>
        <time>2005-07-15T15:59:20Z</time>
      </trkpt>
      <trkpt lat="48.02027" lon="7.00956">
        <ele>1292</ele>
        <time>2005-07-15T16:00:20Z</time>
      </trkpt>
      <trkpt lat="48.0203" lon="7.00953">
        <ele>1289</ele>
        <time>2005-07-15T16:02:00Z</time>
      </trkpt>
      <trkpt lat="48.02126" lon="7.00763">
        <ele>1306</ele>
        <time>2005-07-15T16:06:05Z</time>
      </trkpt>
      <trkpt lat="48.02214" lon="7.00675">
        <ele>1304</ele>
        <time>2005-07-15T16:06:35Z</time>
      </trkpt>
      <trkpt lat="48.02341" lon="7.00657">
        <ele>1282</ele>
        <time>2005-07-15T16:06:55Z</time>
      </trkpt>
      <trkpt lat="48.0257" lon="7.0085">
        <ele>1284</ele>
        <time>2005-07-15T16:08:20Z</time>
      </trkpt>
      <trkpt lat="48.02691" lon="7.00876">
        <ele>1284</ele>
        <time>2005-07-15T16:09:00Z</time>
      </trkpt>
      <trkpt lat="48.02881" lon="7.00908">
        <ele>1275</ele>
        <time>2005-07-15T16:09:50Z</time>
      </trkpt>
      <trkpt lat="48.02931" lon="7.0108">
        <ele>1293</ele>
        <time>2005-07-15T16:10:55Z</time>
      </trkpt>
      <trkpt lat="48.03042" lon="7.01194">
        <ele>1292</ele>
        <time>2005-07-15T16:13:55Z</time>
      </trkpt>
      <trkpt lat="48.03139" lon="7.01353">
        <ele>1294</ele>
        <time>2005-07-15T16:14:30Z</time>
      </trkpt>
      <trkpt lat="48.03175" lon="7.01271">
        <ele>1300</ele>
        <time>2005-07-15T16:15:00Z</time>
      </trkpt>
      <trkpt lat="48.03221" lon="7.01235">
        <ele>1302</ele>
        <time>2005-07-15T16:16:00Z</time>
      </trkpt>
      <trkpt lat="48.03281" lon="7.01099">
        <ele>1294</ele>
        <time>2005-07-15T16:16:15Z</time>
      </trkpt>
      <trkpt lat="48.03341" lon="7.01029">
        <ele>1296</ele>
        <time>2005-07-15T16:16:35Z</time>
      </trkpt>
      <trkpt lat="48.03504" lon="7.01102">
        <ele>1279</ele>
        <time>2005-07-15T16:17:00Z</time>
      </trkpt>
      <trkpt lat="48.03547" lon="7.01183">
        <ele>1291</ele>
        <time>2005-07-15T16:18:00Z</time>
      </trkpt>
      <trkpt lat="48.03577" lon="7.01149">
        <ele>1290</ele>
        <time>2005-07-15T16:18:45Z</time>
      </trkpt>
      <trkpt lat="48.03735" lon="7.01157">
        <ele>1302</ele>
        <time>2005-07-15T16:19:45Z</time>
      </trkpt>
      <trkpt lat="48.03652" lon="7.01245">
        <ele>1310</ele>
        <time>2005-07-15T16:20:20Z</time>
      </trkpt>
      <trkpt lat="48.03714" lon="7.01239">
        <ele>1313</ele>
        <time>2005-07-15T16:20:40Z</time>
      </trkpt>
      <trkpt lat="48.03793" lon="7.01297">
        <ele>1323</ele>
        <time>2005-07-15T16:21:10Z</time>
      </trkpt>
      <trkpt lat="48.0372" lon="7.0137">
        <ele>1335</ele>
        <time>2005-07-15T16:21:45Z</time>
      </trkpt>
      <trkpt lat="48.03772" lon="7.01438">
        <ele>1344</ele>
        <time>2005-07-15T16:22:15Z</time>
      </trkpt>
      <trkpt lat="48.03759" lon="7.01449">
        <ele>1344</ele>
        <time>2005-07-15T16:22:20Z</time>
      </trkpt>
      <trkpt lat="48.03744" lon="7.01529">
        <ele>1354</ele>
        <time>2005-07-15T16:22:50Z</time>
      </trkpt>
      <trkpt lat="48.03772" lon="7.01544">
        <ele>1358</ele>
        <time>2005-07-15T16:27:20Z</time>
      </trkpt>
      <trkpt lat="48.03774" lon="7.01576">
        <ele>1358</ele>
        <time>2005-07-15T16:27:35Z</time>
      </trkpt>
      <trkpt lat="48.03766" lon="7.01574">
        <ele>1358</ele>
        <time>2005-07-15T16:27:50Z</time>
      </trkpt>
      <trkpt lat="48.03768" lon="7.01563">
        <ele>1357</ele>
        <time>2005-07-15T16:28:05Z</time>
      </trkpt>
      <trkpt lat="48.03763" lon="7.01556">
        <ele>1361</ele>
        <time>2005-07-15T16:29:15Z</time>
      </trkpt>
      <trkpt lat="48.03757" lon="7.01662">
        <ele>1362</ele>
        <time>2005-07-15T16:44:05Z</time>
      </trkpt>
      <trkpt lat="48.0374" lon="7.01853">
        <ele>1333</ele>
        <time>2005-07-15T16:45:10Z</time>
      </trkpt>
      <trkpt lat="48.03727" lon="7.01981">
        <ele>1322</ele>
        <time>2005-07-15T16:45:30Z</time>
      </trkpt>
      <trkpt lat="48.03731" lon="7.02039">
        <ele>1317</ele>
        <time>2005-07-15T16:45:50Z</time>
      </trkpt>
      <trkpt lat="48.03626" lon="7.02402">
        <ele>1271</ele>
        <time>2005-07-15T16:47:40Z</time>
      </trkpt>
      <trkpt lat="48.03643" lon="7.02468">
        <ele>1253</ele>
        <time>2005-07-15T16:48:30Z</time>
      </trkpt>
      <trkpt lat="48.03673" lon="7.02507">
        <ele>1246</ele>
        <time>2005-07-15T16:48:50Z</time>
      </trkpt>
      <trkpt lat="48.03581" lon="7.02636">
        <ele>1225</ele>
        <time>2005-07-15T16:53:20Z</time>
      </trkpt>
      <trkpt lat="48.03555" lon="7.02677">
        <ele>1215</ele>
        <time>2005-07-15T16:53:45Z</time>
      </trkpt>
      <trkpt lat="48.03454" lon="7.02773">
        <ele>1191</ele>
        <time>2005-07-15T16:58:45Z</time>
      </trkpt>
      <trkpt lat="48.03319" lon="7.02936">
        <ele>1171</ele>
        <time>2005-07-15T17:01:50Z</time>
      </trkpt>
      <trkpt lat="48.03223" lon="7.03114">
        <ele>1165</ele>
        <time>2005-07-15T17:02:55Z</time>
      </trkpt>
      <trkpt lat="48.02969" lon="7.03288">
        <ele>1152</ele>
        <time>2005-07-15T17:04:10Z</time>
      </trkpt>
      <trkpt lat="48.02933" lon="7.03419">
        <ele>1145</ele>
        <time>2005-07-15T17:04:30Z</time>
      </trkpt>
      <trkpt lat="48.0295" lon="7.03533">
        <ele>1129</ele>
        <time>2005-07-15T17:04:45Z</time>
      </trkpt>
      <trkpt lat="48.02903" lon="7.03535">
        <ele>1116</ele>
        <time>2005-07-15T17:05:05Z</time>
      </trkpt>
      <trkpt lat="48.02785" lon="7.0364">
        <ele>1087</ele>
        <time>2005-07-15T17:06:00Z</time>
      </trkpt>
      <trkpt lat="48.02729" lon="7.03722">
        <ele>1065</ele>
        <time>2005-07-15T17:06:15Z</time>
      </trkpt>
      <trkpt lat="48.02716" lon="7.03734">
        <ele>1062</ele>
        <time>2005-07-15T17:06:30Z</time>
      </trkpt>
      <trkpt lat="48.02645" lon="7.03833">
        <ele>1027</ele>
        <time>2005-07-15T17:07:15Z</time>
      </trkpt>
      <trkpt lat="48.02491" lon="7.03992">
        <ele>996</ele>
        <time>2005-07-15T17:07:50Z</time>
      </trkpt>
      <trkpt lat="48.02356" lon="7.04035">
        <ele>976</ele>
        <time>2005-07-15T17:09:25Z</time>
      </trkpt>
      <trkpt lat="48.02176" lon="7.04149">
        <ele>957</ele>
        <time>2005-07-15T17:09:50Z</time>
      </trkpt>
      <trkpt lat="48.0207" lon="7.04151">
        <ele>949</ele>
        <time>2005-07-15T17:10:15Z</time>
      </trkpt>
      <trkpt lat="48.01957" lon="7.04194">
        <ele>921</ele>
        <time>2005-07-15T17:11:05Z</time>
      </trkpt>
      <trkpt lat="48.01935" lon="7.04179">
        <ele>919</ele>
        <time>2005-07-15T17:11:55Z</time>
      </trkpt>
      <trkpt lat="48.01929" lon="7.04194">
        <ele>909</ele>
        <time>2005-07-15T17:12:05Z</time>
      </trkpt>
      <trkpt lat="48.01909" lon="7.0423">
        <ele>898</ele>
        <time>2005-07-15T17:12:20Z</time>
      </trkpt>
      <trkpt lat="48.01914" lon="7.04258">
        <ele>892</ele>
        <time>2005-07-15T17:12:25Z</time>
      </trkpt>
      <trkpt lat="48.01901" lon="7.04337">
        <ele>881</ele>
        <time>2005-07-15T17:12:40Z</time>
      </trkpt>
      <trkpt lat="48.01886" lon="7.04518">
        <ele>873</ele>
        <time>2005-07-15T17:13:25Z</time>
      </trkpt>
      <trkpt lat="48.01802" lon="7.04631">
        <ele>856</ele>
        <time>2005-07-15T17:14:55Z</time>
      </trkpt>
      <trkpt lat="48.01781" lon="7.04621">
        <ele>856</ele>
        <time>2005-07-15T17:15:25Z</time>
      </trkpt>
      <trkpt lat="48.01774" lon="7.04709">
        <ele>851</ele>
        <time>2005-07-15T17:16:25Z</time>
      </trkpt>
      <trkpt lat="48.01785" lon="7.049">
        <ele>824</ele>
        <time>2005-07-15T17:17:45Z</time>
      </trkpt>
      <trkpt lat="48.01909" lon="7.0517">
        <ele>817</ele>
        <time>2005-07-15T17:18:50Z</time>
      </trkpt>
      <trkpt lat="48.01929" lon="7.05232">
        <ele>775</ele>
        <time>2005-07-15T17:19:30Z</time>
      </trkpt>
      <trkpt lat="48.0197" lon="7.05457">
        <ele>774</ele>
        <time>2005-07-15T17:19:40Z</time>
      </trkpt>
      <trkpt lat="48.01991" lon="7.0547">
        <ele>774</ele>
        <time>2005-07-15T17:20:00Z</time>
      </trkpt>
      <trkpt lat="48.01967" lon="7.0547">
        <ele>772</ele>
        <time>2005-07-15T17:20:50Z</time>
      </trkpt>
      <trkpt lat="48.01965" lon="7.05472">
        <ele>773</ele>
        <time>2005-07-15T17:21:20Z</time>
      </trkpt>
      <trkpt lat="48.01948" lon="7.05483">
        <ele>762</ele>
        <time>2005-07-15T17:21:35Z</time>
      </trkpt>
      <trkpt lat="48.01927" lon="7.05503">
        <ele>756</ele>
        <time>2005-07-15T17:22:30Z</time>
      </trkpt>
      <trkpt lat="48.0197" lon="7.05464">
        <ele>771</ele>
        <time>2005-07-15T17:24:25Z</time>
      </trkpt>
      <trkpt lat="48.02066" lon="7.0549">
        <ele>750</ele>
        <time>2005-07-15T17:25:10Z</time>
      </trkpt>
      <trkpt lat="48.02088" lon="7.05503">
        <ele>749</ele>
        <time>2005-07-15T17:25:25Z</time>
      </trkpt>
      <trkpt lat="48.02105" lon="7.05503">
        <ele>740</ele>
        <time>2005-07-15T17:25:40Z</time>
      </trkpt>
      <trkpt lat="48.02135" lon="7.05558">
        <ele>725</ele>
        <time>2005-07-15T17:26:00Z</time>
      </trkpt>
      <trkpt lat="48.02008" lon="7.05756">
        <ele>685</ele>
        <time>2005-07-15T17:26:30Z</time>
      </trkpt>
      <trkpt lat="48.01976" lon="7.05803">
        <ele>678</ele>
        <time>2005-07-15T17:26:55Z</time>
      </trkpt>
      <trkpt lat="48.01952" lon="7.05861">
        <ele>667</ele>
        <time>2005-07-15T17:27:10Z</time>
      </trkpt>
      <trkpt lat="48.01922" lon="7.05899">
        <ele>655</ele>
        <time>2005-07-15T17:27:25Z</time>
      </trkpt>
      <trkpt lat="48.01952" lon="7.05908">
        <ele>656</ele>
        <time>2005-07-15T17:28:10Z</time>
      </trkpt>
      <trkpt lat="48.01843" lon="7.05942">
        <ele>634</ele>
        <time>2005-07-15T17:28:35Z</time>
      </trkpt>
      <trkpt lat="48.01779" lon="7.05955">
        <ele>625</ele>
        <time>2005-07-15T17:29:05Z</time>
      </trkpt>
      <trkpt lat="48.01764" lon="7.05947">
        <ele>614</ele>
        <time>2005-07-15T17:29:20Z</time>
      </trkpt>
      <trkpt lat="48.01744" lon="7.05932">
        <ele>611</ele>
        <time>2005-07-15T17:29:25Z</time>
      </trkpt>
      <trkpt lat="48.01733" lon="7.05915">
        <ele>606</ele>
        <time>2005-07-15T17:29:30Z</time>
      </trkpt>
      <trkpt lat="48.01703" lon="7.05979">
        <ele>595</ele>
        <time>2005-07-15T17:30:05Z</time>
      </trkpt>
      <trkpt lat="48.0171" lon="7.06056">
        <ele>578</ele>
        <time>2005-07-15T17:30:25Z</time>
      </trkpt>
      <trkpt lat="48.01673" lon="7.06082">
        <ele>563</ele>
        <time>2005-07-15T17:30:55Z</time>
      </trkpt>
      <trkpt lat="48.01633" lon="7.06176">
        <ele>559</ele>
        <time>2005-07-15T17:31:45Z</time>
      </trkpt>
      <trkpt lat="48.01575" lon="7.06314">
        <ele>544</ele>
        <time>2005-07-15T17:32:05Z</time>
      </trkpt>
      <trkpt lat="48.01534" lon="7.06365">
        <ele>539</ele>
        <time>2005-07-15T17:32:15Z</time>
      </trkpt>
      <trkpt lat="48.01538" lon="7.065">
        <ele>534</ele>
        <time>2005-07-15T17:32:35Z</time>
      </trkpt>
      <trkpt lat="48.01502" lon="7.06769">
        <ele>531</ele>
        <time>2005-07-15T17:33:05Z</time>
      </trkpt>
      <trkpt lat="48.01463" lon="7.06777">
        <ele>528</ele>
        <time>2005-07-15T17:33:20Z</time>
      </trkpt>
      <trkpt lat="48.01465" lon="7.06743">
        <ele>525</ele>
        <time>2005-07-15T17:33:30Z</time>
      </trkpt>
      <trkpt lat="48.01461" lon="7.06717">
        <ele>526</ele>
        <time>2005-07-15T17:33:40Z</time>
      </trkpt>
      <trkpt lat="48.01429" lon="7.0699">
        <ele>525</ele>
        <time>2005-07-15T17:34:25Z</time>
      </trkpt>
      <trkpt lat="48.01392" lon="7.07168">
        <ele>519</ele>
        <time>2005-07-15T17:34:45Z</time>
      </trkpt>
      <trkpt lat="48.01268" lon="7.07163">
        <ele>520</ele>
        <time>2005-07-15T17:35:25Z</time>
      </trkpt>
      <trkpt lat="48.01249" lon="7.07118">
        <ele>519</ele>
        <time>2005-07-15T17:36:40Z</time>
      </trkpt>
      <trkpt lat="48.01367" lon="7.07183">
        <ele>514</ele>
        <time>2005-07-15T17:41:10Z</time>
      </trkpt>
      <trkpt lat="48.01345" lon="7.07204">
        <ele>513</ele>
        <time>2005-07-15T17:41:15Z</time>
      </trkpt>
      <trkpt lat="48.01352" lon="7.07266">
        <ele>514</ele>
        <time>2005-07-15T17:41:25Z</time>
      </trkpt>
      <trkpt lat="48.01352" lon="7.07299">
        <ele>513</ele>
        <time>2005-07-15T17:41:30Z</time>
      </trkpt>
      <trkpt lat="48.01332" lon="7.07303">
        <ele>513</ele>
        <time>2005-07-15T17:41:35Z</time>
      </trkpt>
      <trkpt lat="48.01302" lon="7.07303">
        <ele>515</ele>
        <time>2005-07-15T17:42:05Z</time>
      </trkpt>
    </trkseg>
  </trk>
</gpx>